Time;durP1;ratioP1;P1;durP2;ratioP2;P2;SDS_P1;SDS_P2;PMS_P1;PMS_P2;Temp;Humidity;BMP_temperature;BMP_pressure;BME280_temperature;BME280_humidity;BME280_pressure;Samples;Min_cycle;Max_cycle;Signal;HPM_P1;HPM_P2
2022/06/15 00:01:04;;;;;;;7.18;2.92;;;12.00;99.90;;;;;;5013997;28;20917;-83
2022/06/15 00:03:38;;;;;;;9.32;2.78;;;12.00;99.90;;;;;;5005904;28;20393;-84
2022/06/15 00:06:17;;;;;;;6.75;2.70;;;12.00;99.90;;;;;;5020900;28;20868;-84
2022/06/15 00:08:47;;;;;;;5.53;2.67;;;12.00;99.90;;;;;;5006945;28;20895;-84
2022/06/15 00:11:19;;;;;;;8.45;2.65;;;12.00;99.90;;;;;;5006979;28;20436;-83
2022/06/15 00:13:47;;;;;;;6.78;2.60;;;12.00;99.90;;;;;;5019930;28;20405;-84
2022/06/15 00:16:16;;;;;;;6.53;3.08;;;12.10;99.90;;;;;;4998989;28;20888;-83
2022/06/15 00:18:46;;;;;;;5.70;2.35;;;12.00;99.90;;;;;;5012353;28;20446;-82
2022/06/15 00:21:15;;;;;;;7.28;2.72;;;12.10;99.90;;;;;;5020244;28;20382;-83
2022/06/15 00:23:44;;;;;;;7.22;2.88;;;12.10;99.90;;;;;;5005289;28;20500;-83
2022/06/15 00:26:13;;;;;;;5.63;2.40;;;12.10;99.90;;;;;;5016467;28;20405;-84
2022/06/15 00:28:41;;;;;;;5.38;2.22;;;12.10;99.90;;;;;;5052552;28;20414;-84
2022/06/15 00:31:10;;;;;;;5.88;2.70;;;12.10;99.90;;;;;;5013849;28;20420;-84
2022/06/15 00:33:38;;;;;;;7.78;2.55;;;12.10;99.90;;;;;;5011726;28;20397;-85
2022/06/15 00:36:12;;;;;;;7.90;2.47;;;12.10;99.90;;;;;;5016581;28;20806;-84
2022/06/15 00:38:43;;;;;;;4.57;2.17;;;12.10;99.90;;;;;;5016841;28;20401;-82
2022/06/15 00:41:18;;;;;;;5.50;2.40;;;12.10;99.90;;;;;;5003476;28;20823;-84
2022/06/15 00:43:54;;;;;;;4.80;2.40;;;12.10;99.90;;;;;;5015808;28;20405;-83
2022/06/15 00:46:38;;;;;;;4.55;2.80;;;12.10;99.90;;;;;;5012673;28;20437;-84
2022/06/15 00:49:23;;;;;;;5.75;2.45;;;12.10;99.90;;;;;;5022026;28;20409;-84
2022/06/15 00:51:55;;;;;;;4.40;2.40;;;12.10;99.90;;;;;;5012694;28;20398;-84
2022/06/15 00:54:25;;;;;;;5.97;2.60;;;12.10;99.90;;;;;;5004331;28;20401;-83
2022/06/15 00:56:54;;;;;;;4.93;1.80;;;12.10;99.90;;;;;;5005888;28;20736;-83
2022/06/15 00:59:49;;;;;;;5.38;2.30;;;12.10;99.90;;;;;;5006113;28;20440;-84
2022/06/15 01:02:17;;;;;;;4.97;2.30;;;12.10;99.90;;;;;;5000442;28;20415;-84
2022/06/15 01:05:19;;;;;;;5.90;2.20;;;12.10;99.90;;;;;;5000862;28;20405;-84
2022/06/15 01:08:05;;;;;;;5.18;2.45;;;12.20;99.90;;;;;;5016390;28;20443;-84
2022/06/15 01:10:47;;;;;;;6.40;2.50;;;12.20;99.90;;;;;;5007749;28;20751;-83
2022/06/15 01:13:43;;;;;;;6.55;2.60;;;12.20;99.90;;;;;;5008641;28;20405;-85
2022/06/15 01:16:24;;;;;;;3.83;2.00;;;12.20;99.90;;;;;;5019060;28;20388;-84
2022/06/15 01:19:21;;;;;;;3.55;2.33;;;12.20;99.90;;;;;;5052377;28;20396;-83
2022/06/15 01:21:54;;;;;;;4.63;2.38;;;12.20;99.90;;;;;;5039368;28;20390;-84
2022/06/15 01:24:37;;;;;;;4.85;2.22;;;12.20;99.90;;;;;;4998937;28;20475;-84
2022/06/15 01:27:28;;;;;;;5.47;1.90;;;12.20;99.90;;;;;;5034071;28;20402;-83
2022/06/15 01:30:18;;;;;;;6.20;2.20;;;12.20;99.90;;;;;;5022525;28;20425;-84
2022/06/15 01:33:04;;;;;;;6.15;2.45;;;12.20;99.90;;;;;;5011963;28;20407;-84
2022/06/15 01:35:49;;;;;;;3.75;2.15;;;12.20;99.90;;;;;;5011826;28;20395;-85
2022/06/15 01:38:25;;;;;;;3.97;2.05;;;12.20;99.90;;;;;;5011305;28;20403;-84
2022/06/15 01:41:10;;;;;;;4.32;1.95;;;12.20;99.90;;;;;;5019773;28;20407;-84
2022/06/15 01:43:54;;;;;;;5.28;1.90;;;12.20;99.90;;;;;;5002158;28;21000;-83
2022/06/15 01:46:23;;;;;;;4.40;1.90;;;12.20;99.90;;;;;;5012029;28;20424;-83
2022/06/15 01:48:54;;;;;;;5.05;1.73;;;12.10;99.90;;;;;;5006848;28;20760;-84
2022/06/15 01:51:26;;;;;;;4.78;2.00;;;12.20;99.90;;;;;;5050313;27;20403;-83
2022/06/15 01:54:03;;;;;;;5.07;1.83;;;12.20;99.90;;;;;;5016038;28;20776;-80
2022/06/15 01:56:37;;;;;;;6.45;2.30;;;12.10;99.90;;;;;;5016208;28;20450;-84
2022/06/15 01:59:11;;;;;;;4.63;1.83;;;12.20;99.90;;;;;;5016942;28;20402;-84
2022/06/15 02:02:06;;;;;;;4.53;2.03;;;12.20;99.90;;;;;;5003629;28;20496;-82
2022/06/15 02:04:41;;;;;;;4.30;2.20;;;12.20;99.90;;;;;;5010937;28;20443;-84
2022/06/15 02:07:48;;;;;;;4.28;2.00;;;12.20;99.90;;;;;;5051949;28;20410;-84
2022/06/15 02:10:28;;;;;;;4.70;2.05;;;12.20;99.90;;;;;;4989873;28;20462;-86
2022/06/15 02:12:58;;;;;;;4.20;1.80;;;12.10;99.90;;;;;;5008201;28;21079;-84
2022/06/15 02:15:30;;;;;;;3.08;1.95;;;12.10;99.90;;;;;;5054873;28;20409;-84
2022/06/15 02:18:08;;;;;;;4.20;1.70;;;12.10;99.90;;;;;;5014739;28;20850;-83
2022/06/15 02:20:42;;;;;;;3.90;1.85;;;12.10;99.90;;;;;;5014394;28;20410;-83
2022/06/15 02:23:12;;;;;;;3.85;2.00;;;12.10;99.90;;;;;;5049764;28;20794;-84
2022/06/15 02:25:49;;;;;;;4.95;1.73;;;12.10;99.90;;;;;;5017323;28;20814;-83
2022/06/15 02:28:18;;;;;;;5.30;1.80;;;12.10;99.90;;;;;;5043964;28;20405;-85
2022/06/15 02:30:47;;;;;;;4.50;1.70;;;12.00;99.90;;;;;;5016081;28;20410;-84
2022/06/15 02:33:33;;;;;;;5.80;2.35;;;12.00;99.90;;;;;;5019986;28;20409;-84
2022/06/15 02:36:05;;;;;;;4.97;1.92;;;12.10;99.90;;;;;;4992495;28;20418;-84
2022/06/15 02:38:35;;;;;;;5.20;2.13;;;12.00;99.90;;;;;;5018368;28;20440;-83
2022/06/15 02:41:03;;;;;;;3.88;1.80;;;12.10;99.90;;;;;;5013625;28;20481;-83
2022/06/15 02:43:33;;;;;;;5.07;1.80;;;12.10;99.90;;;;;;5016757;28;20398;-84
2022/06/15 02:46:03;;;;;;;4.18;1.70;;;12.20;99.90;;;;;;5015450;28;20407;-84
2022/06/15 02:48:35;;;;;;;3.85;1.80;;;12.20;99.90;;;;;;5003341;28;20408;-85
2022/06/15 02:51:48;;;;;;;4.97;1.83;;;12.10;99.90;;;;;;4988250;28;20951;-84
2022/06/15 02:54:24;;;;;;;3.40;1.80;;;12.00;99.90;;;;;;5040630;28;20406;-84
2022/06/15 02:56:56;;;;;;;4.93;1.58;;;12.00;99.90;;;;;;4997357;28;20411;-83
2022/06/15 02:59:27;;;;;;;5.28;1.88;;;12.00;99.90;;;;;;5038134;28;20808;-84
2022/06/15 03:01:57;;;;;;;5.18;2.15;;;12.00;99.90;;;;;;5014601;28;20397;-83
2022/06/15 03:04:26;;;;;;;5.07;1.80;;;12.00;99.90;;;;;;5014758;28;20903;-84
2022/06/15 03:06:55;;;;;;;4.50;1.70;;;12.00;99.90;;;;;;5018507;28;20486;-83
2022/06/15 03:09:24;;;;;;;5.03;1.80;;;12.00;99.90;;;;;;5002799;28;20419;-84
2022/06/15 03:11:53;;;;;;;5.88;2.05;;;11.90;99.90;;;;;;5020292;28;20413;-83
2022/06/15 03:14:29;;;;;;;4.03;1.60;;;11.90;99.90;;;;;;5012088;28;20430;-82
2022/06/15 03:16:58;;;;;;;6.35;1.85;;;11.90;99.90;;;;;;4994047;28;20488;-84
2022/06/15 03:19:35;;;;;;;4.80;1.60;;;11.90;99.90;;;;;;5018387;28;20892;-84
2022/06/15 03:22:04;;;;;;;4.43;1.63;;;12.00;99.90;;;;;;5011943;28;20407;-83
2022/06/15 03:24:35;;;;;;;3.60;1.60;;;12.00;99.90;;;;;;5015325;28;20441;-84
2022/06/15 03:27:05;;;;;;;5.88;1.58;;;12.00;99.90;;;;;;5048900;28;21012;-84
2022/06/15 03:29:36;;;;;;;4.70;1.95;;;12.00;99.90;;;;;;5016628;28;20401;-82
2022/06/15 03:32:08;;;;;;;4.72;1.73;;;11.90;99.90;;;;;;5011500;28;20393;-84
2022/06/15 03:34:46;;;;;;;3.60;1.60;;;11.90;99.90;;;;;;5008441;28;20403;-83
2022/06/15 03:37:14;;;;;;;3.97;1.75;;;11.90;99.90;;;;;;5053810;28;20390;-81
2022/06/15 03:39:43;;;;;;;4.47;1.65;;;11.90;99.90;;;;;;5008768;28;20919;-83
2022/06/15 03:42:17;;;;;;;2.60;1.50;;;11.90;99.90;;;;;;5018913;28;20895;-84
2022/06/15 03:44:46;;;;;;;3.38;1.60;;;11.90;99.90;;;;;;5010887;28;20905;-84
2022/06/15 03:47:20;;;;;;;5.15;1.70;;;11.90;99.90;;;;;;5035450;28;20811;-84
2022/06/15 03:49:51;;;;;;;4.32;1.60;;;11.90;99.90;;;;;;5011562;28;20482;-84
2022/06/15 03:52:22;;;;;;;4.53;1.63;;;11.90;99.90;;;;;;5037207;28;20407;-84
2022/06/15 03:54:51;;;;;;;4.35;2.05;;;11.90;99.90;;;;;;5019469;28;20465;-84
2022/06/15 03:57:21;;;;;;;4.40;1.73;;;11.90;99.90;;;;;;5048647;28;20456;-84
2022/06/15 03:59:50;;;;;;;4.38;1.52;;;11.90;99.90;;;;;;5059387;27;20502;-84
2022/06/15 04:02:37;;;;;;;4.95;1.70;;;11.90;99.90;;;;;;5011774;28;20517;-82
2022/06/15 04:05:19;;;;;;;4.05;1.50;;;11.90;99.90;;;;;;5039465;28;20449;-82
2022/06/15 04:10:35;;;;;;;4.20;1.80;;;11.90;99.90;;;;;;5013266;28;20759;-85
2022/06/15 04:13:07;;;;;;;4.95;1.95;;;11.90;99.90;;;;;;4997318;28;20417;-83
2022/06/15 04:15:34;;;;;;;5.18;1.80;;;11.90;99.90;;;;;;5041954;28;20413;-85
2022/06/15 04:18:02;;;;;;;6.10;1.95;;;11.90;99.90;;;;;;5016957;28;20410;-81
2022/06/15 04:20:43;;;;;;;4.85;1.67;;;11.90;99.90;;;;;;5015258;28;20568;-84
2022/06/15 04:23:19;;;;;;;3.88;1.40;;;12.00;99.90;;;;;;5036080;28;20410;-85
2022/06/15 04:25:52;;;;;;;5.25;1.77;;;12.10;99.90;;;;;;5018591;28;20415;-85
2022/06/15 04:28:36;;;;;;;7.85;1.85;;;12.10;99.90;;;;;;5014276;28;20414;-85
2022/06/15 04:31:13;;;;;;;4.53;1.60;;;12.20;99.90;;;;;;5018874;28;20844;-84
2022/06/15 04:33:41;;;;;;;5.43;1.65;;;12.20;99.90;;;;;;5017020;28;20407;-82
2022/06/15 04:36:12;;;;;;;4.15;1.63;;;12.30;99.90;;;;;;5047902;28;20937;-83
2022/06/15 04:38:43;;;;;;;6.05;1.60;;;12.30;99.90;;;;;;5043151;27;20862;-85
2022/06/15 04:41:12;;;;;;;4.85;1.60;;;12.40;99.90;;;;;;5023468;28;20907;-84
2022/06/15 04:43:39;;;;;;;4.43;1.70;;;12.40;99.90;;;;;;5014121;28;20411;-83
2022/06/15 04:46:15;;;;;;;3.25;1.50;;;12.40;99.90;;;;;;5017457;28;20509;-84
2022/06/15 04:48:44;;;;;;;3.95;1.30;;;12.40;99.90;;;;;;5036939;28;20458;-85
2022/06/15 04:51:20;;;;;;;4.85;1.67;;;12.40;99.90;;;;;;5042758;28;20424;-84
2022/06/15 04:53:53;;;;;;;4.32;1.65;;;12.40;99.90;;;;;;5039895;28;20401;-84
2022/06/15 04:56:22;;;;;;;4.60;1.40;;;12.50;99.90;;;;;;4996142;28;20394;-85
2022/06/15 04:58:50;;;;;;;3.75;1.58;;;12.50;99.90;;;;;;5017380;28;20455;-82
2022/06/15 05:01:20;;;;;;;3.87;1.50;;;12.50;99.90;;;;;;5019110;28;20897;-83
2022/06/15 05:03:47;;;;;;;4.47;1.58;;;12.60;99.90;;;;;;5020667;28;20408;-83
2022/06/15 05:06:21;;;;;;;5.10;1.60;;;12.60;99.90;;;;;;4988372;28;20405;-83
2022/06/15 05:08:48;;;;;;;2.85;1.55;;;12.60;99.90;;;;;;5001013;28;20407;-85
2022/06/15 05:11:16;;;;;;;2.75;1.50;;;12.60;99.90;;;;;;5006528;28;20400;-83
2022/06/15 05:13:44;;;;;;;4.07;1.88;;;12.70;99.90;;;;;;5021540;28;20394;-85
2022/06/15 05:16:12;;;;;;;4.20;1.50;;;12.70;99.90;;;;;;5035534;28;20470;-83
2022/06/15 05:18:40;;;;;;;4.22;1.65;;;12.70;99.90;;;;;;5010113;28;20809;-85
2022/06/15 05:21:15;;;;;;;4.25;1.60;;;12.80;99.90;;;;;;5009205;28;20923;-84
2022/06/15 05:23:44;;;;;;;7.55;1.80;;;12.90;99.90;;;;;;5001307;28;20400;-82
2022/06/15 05:26:14;;;;;;;4.68;1.45;;;12.80;99.90;;;;;;4998989;28;20741;-84
2022/06/15 05:28:45;;;;;;;4.40;1.60;;;12.80;99.90;;;;;;5022440;28;20437;-84
2022/06/15 05:31:18;;;;;;;5.22;1.60;;;12.90;99.90;;;;;;5005631;28;20423;-84
2022/06/15 05:33:55;;;;;;;7.15;2.05;;;12.80;99.90;;;;;;4989998;28;20393;-86
2022/06/15 05:36:30;;;;;;;6.68;1.70;;;12.90;99.90;;;;;;5022231;28;20876;-84
2022/06/15 05:38:58;;;;;;;3.42;1.63;;;12.90;99.90;;;;;;5022331;28;20405;-84
2022/06/15 05:41:26;;;;;;;4.00;1.85;;;13.00;99.90;;;;;;5005804;28;20397;-84
2022/06/15 05:44:02;;;;;;;4.13;1.60;;;12.90;99.90;;;;;;5022293;28;20400;-85
2022/06/15 05:46:35;;;;;;;4.50;2.00;;;13.00;99.90;;;;;;5005786;28;20804;-85
2022/06/15 05:49:26;;;;;;;3.78;1.63;;;13.00;99.90;;;;;;4990591;28;20409;-84
2022/06/15 05:51:55;;;;;;;3.53;1.90;;;13.00;99.90;;;;;;5005673;28;20397;-85
2022/06/15 05:54:25;;;;;;;3.53;1.67;;;13.10;99.90;;;;;;4989301;28;20891;-85
2022/06/15 05:56:52;;;;;;;4.07;1.67;;;13.10;99.90;;;;;;4990367;28;20396;-86
2022/06/15 05:59:20;;;;;;;4.25;1.63;;;13.20;99.90;;;;;;4990745;28;20782;-84
2022/06/15 06:01:48;;;;;;;4.60;1.53;;;13.20;99.90;;;;;;4990435;28;20400;-84
2022/06/15 06:04:18;;;;;;;4.68;1.50;;;13.20;99.90;;;;;;4990381;28;20389;-85
2022/06/15 06:06:48;;;;;;;4.32;1.92;;;13.30;99.90;;;;;;4991416;28;20401;-85
2022/06/15 06:09:15;;;;;;;4.18;1.58;;;13.40;99.90;;;;;;5009604;28;20411;-85
2022/06/15 06:11:43;;;;;;;4.55;1.65;;;13.40;99.90;;;;;;5009579;28;20448;-83
2022/06/15 06:14:11;;;;;;;3.92;1.60;;;13.40;99.90;;;;;;5009564;28;20402;-86
2022/06/15 06:16:39;;;;;;;3.53;1.45;;;13.40;99.90;;;;;;5009251;28;20392;-84
2022/06/15 06:19:07;;;;;;;4.80;1.50;;;13.40;99.90;;;;;;5009419;28;20784;-85
2022/06/15 06:21:35;;;;;;;4.78;1.60;;;13.50;99.90;;;;;;5009160;28;20395;-85
2022/06/15 06:24:03;;;;;;;3.95;1.70;;;13.60;99.90;;;;;;5009480;28;20395;-84
2022/06/15 06:26:31;;;;;;;4.57;1.67;;;13.60;99.90;;;;;;5009403;28;20403;-85
2022/06/15 06:29:00;;;;;;;5.07;1.88;;;13.70;99.90;;;;;;5009027;28;20399;-85
2022/06/15 06:31:28;;;;;;;2.92;1.70;;;13.70;99.90;;;;;;5008259;28;20403;-84
2022/06/15 06:33:56;;;;;;;4.80;1.43;;;13.80;99.90;;;;;;5008294;28;20479;-83
2022/06/15 06:36:32;;;;;;;4.63;1.87;;;13.80;99.90;;;;;;5024830;28;20399;-85
2022/06/15 06:39:05;;;;;;;3.60;1.63;;;14.00;99.90;;;;;;5009434;28;20453;-85
2022/06/15 06:41:33;;;;;;;3.35;1.60;;;14.00;99.90;;;;;;5009377;28;20420;-85
2022/06/15 06:44:04;;;;;;;3.55;1.60;;;14.00;99.90;;;;;;5009086;28;20753;-85
2022/06/15 06:46:34;;;;;;;4.03;1.60;;;14.00;99.90;;;;;;5008174;28;20387;-85
2022/06/15 06:49:05;;;;;;;3.25;1.50;;;14.00;99.90;;;;;;4972599;28;20411;-85
2022/06/15 06:51:35;;;;;;;4.50;1.50;;;14.10;99.90;;;;;;4988773;28;20472;-84
2022/06/15 06:54:04;;;;;;;4.68;1.50;;;14.10;99.90;;;;;;4989851;28;20393;-84
2022/06/15 06:56:34;;;;;;;3.20;1.60;;;14.20;99.90;;;;;;5021335;28;20443;-84
2022/06/15 06:59:06;;;;;;;4.82;1.50;;;14.20;99.90;;;;;;4992019;28;20421;-83
2022/06/15 07:01:35;;;;;;;4.55;1.42;;;14.30;99.90;;;;;;5007917;28;20814;-84
2022/06/15 07:04:03;;;;;;;3.88;1.42;;;14.40;99.90;;;;;;5008841;28;20750;-83
2022/06/15 07:06:32;;;;;;;4.57;1.50;;;14.50;99.90;;;;;;5008756;28;20417;-85
2022/06/15 07:08:59;;;;;;;4.88;1.50;;;14.50;99.90;;;;;;5007594;28;20430;-84
2022/06/15 07:11:28;;;;;;;5.00;1.73;;;14.40;99.90;;;;;;5007909;28;20392;-85
2022/06/15 07:13:56;;;;;;;4.15;1.40;;;14.50;99.90;;;;;;5007966;28;20411;-85
2022/06/15 07:16:23;;;;;;;4.03;1.67;;;14.60;99.90;;;;;;5008661;28;20393;-84
2022/06/15 07:18:52;;;;;;;4.57;1.40;;;14.60;99.90;;;;;;5008467;28;20827;-85
2022/06/15 07:21:22;;;;;;;4.90;1.30;;;14.60;99.90;;;;;;5008574;28;20388;-83
2022/06/15 07:23:55;;;;;;;3.33;1.70;;;14.70;99.90;;;;;;5008701;28;20421;-84
2022/06/15 07:26:36;;;;;;;5.10;1.40;;;14.70;99.90;;;;;;5025798;28;20385;-85
2022/06/15 07:29:04;;;;;;;3.90;1.50;;;14.70;99.90;;;;;;4993019;28;20415;-83
2022/06/15 07:31:38;;;;;;;2.85;1.48;;;14.80;99.90;;;;;;5008534;28;20391;-85
2022/06/15 07:34:08;;;;;;;4.50;1.75;;;14.70;99.90;;;;;;5009619;28;20390;-85
2022/06/15 07:36:37;;;;;;;4.30;1.80;;;14.80;99.90;;;;;;5010620;28;20394;-81
2022/06/15 07:39:06;;;;;;;5.03;1.80;;;14.90;99.90;;;;;;5011982;28;20418;-85
2022/06/15 07:41:34;;;;;;;2.92;1.30;;;15.00;99.90;;;;;;5011882;28;20394;-85
2022/06/15 07:44:03;;;;;;;4.50;1.42;;;15.20;99.90;;;;;;5011960;28;20391;-81
2022/06/15 07:46:31;;;;;;;3.38;1.40;;;15.30;99.90;;;;;;5043643;27;20398;-85
2022/06/15 07:51:55;;;;;;;3.67;1.63;;;15.30;99.90;;;;;;5011773;28;20440;-84
2022/06/15 07:54:25;;;;;;;1.92;1.42;;;15.30;99.90;;;;;;5011737;28;20395;-85
2022/06/15 07:56:53;;;;;;;2.83;1.50;;;15.30;99.90;;;;;;5011528;28;20395;-85
2022/06/15 07:59:22;;;;;;;3.50;1.57;;;15.40;99.90;;;;;;5011618;28;20482;-84
2022/06/15 08:01:50;;;;;;;4.20;1.50;;;15.50;99.90;;;;;;5010794;28;20398;-84
2022/06/15 08:04:20;;;;;;;3.70;1.30;;;15.60;99.90;;;;;;5011520;28;20405;-84
2022/06/15 08:06:48;;;;;;;2.17;1.30;;;15.60;99.90;;;;;;5010917;28;20431;-83
2022/06/15 08:09:17;;;;;;;4.60;1.65;;;15.70;99.90;;;;;;5043466;28;20418;-83
2022/06/15 08:14:35;;;;;;;3.30;1.30;;;15.80;99.90;;;;;;5011359;28;20387;-83
2022/06/15 08:17:04;;;;;;;2.88;1.30;;;15.80;99.90;;;;;;4991163;28;20385;-85
2022/06/15 08:19:36;;;;;;;4.65;1.40;;;15.80;99.90;;;;;;4992127;28;20408;-85
2022/06/15 08:22:04;;;;;;;3.08;1.60;;;15.90;99.90;;;;;;4992179;28;20479;-84
2022/06/15 08:24:32;;;;;;;2.83;1.50;;;15.90;99.90;;;;;;4992006;28;20389;-85
2022/06/15 08:27:01;;;;;;;6.07;1.40;;;15.90;99.90;;;;;;4990671;28;20401;-85
2022/06/15 08:29:28;;;;;;;5.88;1.40;;;16.00;99.90;;;;;;4991631;28;20408;-84
2022/06/15 08:31:57;;;;;;;2.33;1.10;;;16.10;99.90;;;;;;4992076;28;20397;-84
2022/06/15 08:34:26;;;;;;;4.65;1.20;;;16.10;99.90;;;;;;4990761;28;20389;-86
2022/06/15 08:36:54;;;;;;;2.70;1.20;;;16.10;99.90;;;;;;4991650;28;20443;-85
2022/06/15 08:39:22;;;;;;;2.90;1.20;;;16.20;99.90;;;;;;4991729;28;20389;-83
2022/06/15 08:42:03;;;;;;;2.10;1.20;;;16.20;99.90;;;;;;4991686;28;20389;-85
2022/06/15 08:44:55;;;;;;;5.65;1.60;;;16.30;99.90;;;;;;4991460;28;20447;-85
2022/06/15 08:48:11;;;;;;;2.93;1.37;;;16.30;99.90;;;;;;4997904;28;20383;-84
2022/06/15 08:50:56;;;;;;;3.35;1.10;;;16.20;99.90;;;;;;5024187;28;20414;-85
2022/06/15 08:53:27;;;;;;;2.53;1.00;;;16.10;99.90;;;;;;5010822;28;20410;-85
2022/06/15 08:56:07;;;;;;;2.70;1.20;;;16.30;99.90;;;;;;5010711;28;20440;-85
2022/06/15 08:58:54;;;;;;;2.30;1.13;;;16.30;99.90;;;;;;5010743;28;20413;-83
2022/06/15 09:02:01;;;;;;;3.05;0.98;;;16.40;99.90;;;;;;4991367;28;20889;-84
2022/06/15 09:04:46;;;;;;;4.00;0.90;;;16.30;99.90;;;;;;5018912;28;20466;-84
2022/06/15 09:07:35;;;;;;;2.35;1.00;;;16.40;99.90;;;;;;4995244;28;20403;-84
2022/06/15 09:10:49;;;;;;;3.58;0.93;;;16.60;99.90;;;;;;5006077;28;20435;-85
2022/06/15 09:13:51;;;;;;;4.05;0.90;;;16.70;99.90;;;;;;5051038;28;20725;-84
2022/06/15 09:16:50;;;;;;;1.10;0.70;;;16.80;99.90;;;;;;5051286;28;20433;-85
2022/06/15 09:19:33;;;;;;;2.72;0.93;;;16.80;99.90;;;;;;5009181;28;20391;-86
2022/06/15 09:22:11;;;;;;;3.78;0.90;;;16.60;99.90;;;;;;5009519;28;20479;-84
2022/06/15 09:24:55;;;;;;;4.85;0.80;;;16.60;99.90;;;;;;5010116;28;20873;-83
2022/06/15 09:27:29;;;;;;;2.80;0.80;;;16.80;99.90;;;;;;5009332;28;20395;-84
2022/06/15 09:30:04;;;;;;;3.15;0.77;;;16.80;99.90;;;;;;5010175;28;20435;-83
2022/06/15 09:32:38;;;;;;;4.45;1.30;;;16.70;99.90;;;;;;5015493;28;20409;-83
2022/06/15 09:35:30;;;;;;;3.47;0.80;;;16.90;99.90;;;;;;5003866;28;20408;-84
2022/06/15 09:38:01;;;;;;;3.63;0.70;;;16.90;99.90;;;;;;4993970;28;20480;-84
2022/06/15 09:41:21;;;;;;;2.80;0.90;;;17.00;99.90;;;;;;5001662;28;20442;-84
2022/06/15 09:44:08;;;;;;;2.75;0.82;;;17.10;99.90;;;;;;5000537;28;20390;-84
2022/06/15 09:47:23;;;;;;;2.13;0.80;;;17.10;99.90;;;;;;4990763;28;20400;-82
2022/06/15 09:49:59;;;;;;;1.85;0.60;;;17.10;99.90;;;;;;4998136;28;20419;-85
2022/06/15 09:52:55;;;;;;;4.10;0.80;;;17.10;99.90;;;;;;4994010;28;20417;-83
2022/06/15 09:55:48;;;;;;;3.47;0.70;;;17.10;99.90;;;;;;5008262;28;20806;-84
2022/06/15 09:58:43;;;;;;;2.85;0.60;;;17.20;99.90;;;;;;5002047;28;20397;-83
2022/06/15 10:01:12;;;;;;;2.45;0.70;;;17.10;99.90;;;;;;4990357;28;20480;-86
2022/06/15 10:03:53;;;;;;;2.55;0.63;;;17.00;99.90;;;;;;4992975;28;20468;-84
2022/06/15 10:06:42;;;;;;;1.80;0.77;;;17.20;99.90;;;;;;4998799;28;20818;-84
2022/06/15 10:09:15;;;;;;;3.20;1.00;;;17.20;99.90;;;;;;4992192;28;20955;-85
2022/06/15 10:11:48;;;;;;;2.80;0.70;;;17.10;99.90;;;;;;4999928;28;20410;-83
2022/06/15 10:14:34;;;;;;;2.03;0.55;;;17.10;99.90;;;;;;5004264;28;20399;-83
2022/06/15 10:17:18;;;;;;;4.40;1.00;;;17.20;99.90;;;;;;5016521;28;20455;-85
2022/06/15 10:19:50;;;;;;;2.40;0.65;;;17.20;99.90;;;;;;5002436;28;20403;-85
2022/06/15 10:22:26;;;;;;;2.10;0.80;;;17.30;99.90;;;;;;5000541;28;20426;-84
2022/06/15 10:24:57;;;;;;;2.25;0.70;;;17.30;99.90;;;;;;4991052;28;20389;-84
2022/06/15 10:27:25;;;;;;;2.80;0.60;;;17.20;99.90;;;;;;4990286;28;20400;-86
2022/06/15 10:30:06;;;;;;;2.75;0.50;;;17.20;99.90;;;;;;4990050;28;20405;-85
2022/06/15 10:32:35;;;;;;;1.63;0.60;;;17.50;99.90;;;;;;4990166;28;20393;-84
2022/06/15 10:35:03;;;;;;;5.10;0.80;;;17.60;99.90;;;;;;4990102;28;20388;-85
2022/06/15 10:37:35;;;;;;;1.83;0.70;;;17.70;99.90;;;;;;4990101;28;20825;-85
2022/06/15 10:40:31;;;;;;;3.30;0.77;;;17.60;99.90;;;;;;4989949;28;20748;-84
2022/06/15 10:43:15;;;;;;;3.20;0.65;;;17.60;99.90;;;;;;4990019;28;20393;-85
2022/06/15 10:46:04;;;;;;;5.00;0.70;;;17.60;99.90;;;;;;4994473;28;20399;-84
2022/06/15 10:48:54;;;;;;;3.92;0.70;;;17.70;99.90;;;;;;5005654;28;20394;-85
2022/06/15 10:51:35;;;;;;;2.53;0.60;;;17.80;99.90;;;;;;5009107;28;20416;-85
2022/06/15 10:54:30;;;;;;;3.65;0.65;;;17.70;99.90;;;;;;5009076;28;20383;-83
2022/06/15 11:03:25;;;;;;;2.63;0.70;;;17.50;99.90;;;;;;4994373;28;20940;-84
2022/06/15 11:05:55;;;;;;;2.85;0.55;;;17.40;99.90;;;;;;5008913;28;20403;-85
2022/06/15 11:08:29;;;;;;;1.98;0.60;;;17.50;99.90;;;;;;5009487;28;20407;-84
2022/06/15 11:11:23;;;;;;;1.73;0.70;;;17.50;99.90;;;;;;5012154;28;20407;-85
2022/06/15 11:13:57;;;;;;;2.25;0.63;;;17.70;99.90;;;;;;5012600;28;20874;-85
2022/06/15 11:19:23;;;;;;;2.47;0.65;;;18.10;99.90;;;;;;5009949;28;20758;-84
2022/06/15 11:22:02;;;;;;;4.97;0.70;;;18.00;99.90;;;;;;5002068;28;20398;-85
2022/06/15 11:24:52;;;;;;;4.32;0.60;;;18.10;99.90;;;;;;4992902;28;20425;-85
2022/06/15 11:27:29;;;;;;;1.10;0.60;;;18.10;99.90;;;;;;4998753;28;20394;-83
2022/06/15 11:30:00;;;;;;;5.78;0.80;;;18.20;99.90;;;;;;5012093;28;20395;-83
2022/06/15 11:32:45;;;;;;;1.75;0.68;;;18.30;99.90;;;;;;5012109;28;20414;-83
2022/06/15 11:35:13;;;;;;;2.25;0.50;;;18.30;99.90;;;;;;5011986;28;20422;-84
2022/06/15 11:37:55;;;;;;;2.30;0.85;;;18.30;99.90;;;;;;5012102;28;20393;-86
2022/06/15 11:40:50;;;;;;;5.22;0.80;;;18.50;99.90;;;;;;4999292;28;20480;-83
2022/06/15 11:43:26;;;;;;;2.17;0.60;;;18.40;99.90;;;;;;5002775;28;20821;-84
2022/06/15 11:45:57;;;;;;;2.20;0.70;;;18.30;99.90;;;;;;4996376;28;20410;-85
2022/06/15 11:48:44;;;;;;;2.25;0.60;;;18.00;99.90;;;;;;5011045;28;20399;-85
2022/06/15 11:51:36;;;;;;;2.70;0.65;;;17.90;99.90;;;;;;5006568;28;20992;-84
2022/06/15 11:54:16;;;;;;;2.77;0.90;;;17.80;99.90;;;;;;4992485;28;20388;-84
2022/06/15 11:57:21;;;;;;;1.70;0.77;;;17.90;99.90;;;;;;4992581;28;20389;-83
2022/06/15 12:00:07;;;;;;;5.78;0.80;;;18.10;99.90;;;;;;4992396;28;20385;-84
2022/06/15 12:02:47;;;;;;;2.15;0.60;;;18.40;99.90;;;;;;5007087;28;20869;-83
2022/06/15 12:05:25;;;;;;;2.57;0.83;;;18.60;99.90;;;;;;4992740;28;20476;-84
2022/06/15 12:08:23;;;;;;;3.45;0.70;;;18.80;99.90;;;;;;4991283;28;20410;-83
2022/06/15 12:10:58;;;;;;;2.97;0.60;;;18.60;99.90;;;;;;4992177;28;20415;-84
2022/06/15 12:13:58;;;;;;;2.70;0.70;;;18.60;99.90;;;;;;5025337;28;20393;-85
2022/06/15 12:16:38;;;;;;;2.33;0.70;;;18.50;99.90;;;;;;4992777;28;20393;-85
2022/06/15 12:19:17;;;;;;;2.30;0.73;;;18.60;99.90;;;;;;5004532;28;20870;-84
2022/06/15 12:21:51;;;;;;;3.80;0.68;;;18.70;99.90;;;;;;4992238;28;20397;-86
2022/06/15 12:24:24;;;;;;;2.15;0.60;;;18.90;99.90;;;;;;5001742;28;20393;-84
2022/06/15 12:27:02;;;;;;;2.90;0.80;;;19.10;99.90;;;;;;5007208;28;20900;-84
2022/06/15 12:29:41;;;;;;;3.10;0.70;;;19.00;99.90;;;;;;5009195;28;20413;-85
2022/06/15 12:32:33;;;;;;;2.30;0.70;;;19.00;99.90;;;;;;5001352;28;20958;-84
2022/06/15 12:35:38;;;;;;;1.85;0.60;;;19.00;99.90;;;;;;5006453;28;20458;-84
2022/06/15 12:38:44;;;;;;;3.05;0.70;;;18.90;99.90;;;;;;4995051;28;20387;-84
2022/06/15 12:44:09;;;;;;;1.13;0.60;;;18.90;99.90;;;;;;4991713;28;20400;-86
2022/06/15 12:46:37;;;;;;;4.40;0.65;;;19.00;99.90;;;;;;5005943;28;20497;-83
2022/06/15 12:49:26;;;;;;;1.73;0.70;;;19.10;99.90;;;;;;4991646;28;20531;-85
2022/06/15 12:52:18;;;;;;;4.47;0.80;;;19.30;99.90;;;;;;5023059;28;20466;-82
2022/06/15 12:55:04;;;;;;;2.40;0.80;;;19.10;99.90;;;;;;4991682;28;20389;-85
2022/06/15 12:58:15;;;;;;;4.28;0.75;;;19.10;99.90;;;;;;4991514;28;20397;-85
2022/06/15 13:00:52;;;;;;;3.05;0.80;;;19.10;99.90;;;;;;5021694;28;20429;-81
2022/06/15 13:03:58;;;;;;;4.50;0.70;;;18.90;99.90;;;;;;5004943;28;20863;-84
2022/06/15 13:06:41;;;;;;;2.00;0.52;;;19.00;99.90;;;;;;5006183;28;20392;-85
2022/06/15 13:09:19;;;;;;;2.95;0.70;;;19.20;99.90;;;;;;5010445;28;20398;-84
2022/06/15 13:11:59;;;;;;;2.40;0.60;;;19.20;99.90;;;;;;5010505;28;20460;-84
2022/06/15 13:14:32;;;;;;;3.60;0.60;;;19.10;99.90;;;;;;4995597;28;20447;-84
2022/06/15 13:17:11;;;;;;;3.90;0.70;;;19.10;99.90;;;;;;5010782;28;20730;-84
2022/06/15 13:20:00;;;;;;;5.63;0.70;;;19.20;99.90;;;;;;5010027;28;20395;-83
2022/06/15 13:22:32;;;;;;;2.50;0.75;;;19.40;99.90;;;;;;4998752;28;20435;-85
2022/06/15 13:25:17;;;;;;;1.50;0.70;;;19.20;99.90;;;;;;5010203;28;20419;-85
2022/06/15 13:27:58;;;;;;;3.00;0.53;;;19.30;99.90;;;;;;5001304;28;20416;-84
2022/06/15 13:30:48;;;;;;;2.00;0.60;;;19.40;99.90;;;;;;4990374;28;20393;-84
2022/06/15 13:33:16;;;;;;;1.55;0.60;;;19.20;99.90;;;;;;4996337;28;20762;-83
2022/06/15 13:36:04;;;;;;;4.25;0.65;;;19.20;99.90;;;;;;5005542;28;20868;-85
2022/06/15 13:38:42;;;;;;;1.60;0.60;;;19.30;99.90;;;;;;4999856;28;20754;-83
2022/06/15 13:41:20;;;;;;;3.13;0.50;;;19.40;99.90;;;;;;4990840;28;20458;-83
2022/06/15 13:43:49;;;;;;;2.45;0.60;;;19.50;99.90;;;;;;5002425;28;20476;-84
2022/06/15 13:46:22;;;;;;;2.75;0.60;;;19.50;99.90;;;;;;4994650;28;20405;-86
2022/06/15 13:48:52;;;;;;;3.55;0.77;;;19.50;99.90;;;;;;5008211;28;20454;-84
2022/06/15 13:51:27;;;;;;;3.10;0.80;;;19.50;99.90;;;;;;4990793;28;20883;-82
2022/06/15 13:54:42;;;;;;;2.65;0.70;;;19.50;99.90;;;;;;4995104;28;20407;-84
2022/06/15 13:57:29;;;;;;;4.90;0.88;;;19.40;99.90;;;;;;5068589;28;20700;-84